Time;durP1;ratioP1;P1;durP2;ratioP2;P2;SDS_P1;SDS_P2;PMS_P1;PMS_P2;Temp;Humidity;BMP_temperature;BMP_pressure;BME280_temperature;BME280_humidity;BME280_pressure;Samples;Min_cycle;Max_cycle;Signal;HPM_P1;HPM_P2
2023/08/09 00:01:51;;;;;;;5.43;1.98;;;14.30;99.90;;;;;;5010481;28;20026;-47
2023/08/09 00:04:16;;;;;;;2.75;2.10;;;14.30;99.90;;;;;;5009915;28;20018;-45
2023/08/09 00:06:42;;;;;;;2.92;1.50;;;14.30;99.90;;;;;;5010831;28;20105;-46
2023/08/09 00:09:07;;;;;;;6.72;1.67;;;14.30;99.90;;;;;;5010162;28;20402;-47
2023/08/09 00:11:33;;;;;;;3.10;1.90;;;14.30;99.90;;;;;;5010360;28;20533;-45
2023/08/09 00:13:58;;;;;;;2.80;1.85;;;14.30;99.90;;;;;;5010279;28;20025;-45
2023/08/09 00:16:24;;;;;;;3.45;2.00;;;14.30;99.90;;;;;;5010268;28;20045;-46
2023/08/09 00:18:49;;;;;;;6.28;1.98;;;14.30;99.90;;;;;;5010246;28;20481;-49
2023/08/09 00:21:15;;;;;;;5.25;1.88;;;14.30;99.90;;;;;;4992630;28;20061;-46
2023/08/09 00:23:41;;;;;;;3.42;1.95;;;14.30;99.90;;;;;;4991935;28;20062;-46
2023/08/09 00:26:06;;;;;;;4.18;2.10;;;14.30;99.90;;;;;;5010432;28;20022;-49
2023/08/09 00:28:32;;;;;;;4.00;2.13;;;14.30;99.90;;;;;;5010083;28;20096;-53
2023/08/09 00:30:57;;;;;;;3.25;1.63;;;14.30;99.90;;;;;;5010047;28;20026;-53
2023/08/09 00:33:23;;;;;;;3.33;2.03;;;14.30;99.90;;;;;;5009634;28;20034;-45
2023/08/09 00:35:49;;;;;;;3.63;1.67;;;14.20;99.90;;;;;;5010305;28;20022;-47
2023/08/09 00:38:15;;;;;;;2.97;1.60;;;14.20;99.90;;;;;;5009996;28;20076;-47
2023/08/09 00:40:40;;;;;;;6.25;1.60;;;14.20;99.90;;;;;;5010045;28;20091;-46
2023/08/09 00:43:06;;;;;;;3.60;1.83;;;14.30;99.90;;;;;;5010005;28;20026;-46
2023/08/09 00:45:33;;;;;;;3.03;1.95;;;14.30;99.90;;;;;;5009784;28;20024;-47
2023/08/09 00:48:00;;;;;;;4.13;2.25;;;14.20;99.90;;;;;;5010152;28;20038;-46
2023/08/09 00:50:26;;;;;;;2.10;1.58;;;14.20;99.90;;;;;;5009972;28;20053;-46
2023/08/09 00:52:51;;;;;;;4.97;2.28;;;14.20;99.90;;;;;;5009669;28;20029;-46
2023/08/09 00:55:17;;;;;;;4.78;1.85;;;14.20;99.90;;;;;;5009806;28;20432;-46
2023/08/09 00:57:45;;;;;;;2.03;1.50;;;14.20;99.90;;;;;;5010064;28;20076;-46
2023/08/09 01:00:11;;;;;;;4.80;1.63;;;14.20;99.90;;;;;;5010197;28;20025;-52
2023/08/09 01:02:36;;;;;;;2.95;1.65;;;14.10;99.90;;;;;;5009877;28;20022;-46
2023/08/09 01:05:04;;;;;;;3.45;2.08;;;14.10;99.90;;;;;;5009524;28;20388;-46
2023/08/09 01:07:52;;;;;;;5.80;1.75;;;14.10;99.90;;;;;;4992017;28;20026;-48
2023/08/09 01:10:26;;;;;;;3.45;1.90;;;14.10;99.90;;;;;;5010748;28;20050;-48
2023/08/09 01:12:57;;;;;;;1.42;1.30;;;14.10;99.90;;;;;;5013416;28;20030;-49
2023/08/09 01:15:23;;;;;;;4.25;1.83;;;14.00;99.90;;;;;;5013539;28;20086;-46
2023/08/09 01:17:51;;;;;;;3.35;2.05;;;14.00;99.90;;;;;;5013508;28;20018;-47
2023/08/09 01:20:18;;;;;;;5.95;1.95;;;14.00;99.90;;;;;;5013512;28;20028;-46
2023/08/09 01:22:56;;;;;;;2.22;1.67;;;14.00;99.90;;;;;;5013230;28;20010;-46
2023/08/09 01:25:21;;;;;;;4.72;1.95;;;14.00;99.90;;;;;;4995390;28;20069;-45
2023/08/09 01:27:48;;;;;;;2.72;1.63;;;14.00;99.90;;;;;;5013246;28;20038;-46
2023/08/09 01:30:15;;;;;;;3.90;1.92;;;14.00;99.90;;;;;;5013070;28;20033;-45
2023/08/09 01:32:40;;;;;;;7.80;2.20;;;13.90;99.90;;;;;;5013216;28;20034;-46
2023/08/09 01:35:07;;;;;;;6.03;1.90;;;13.90;99.90;;;;;;5012817;28;20034;-47
2023/08/09 01:37:45;;;;;;;3.60;1.80;;;13.90;99.90;;;;;;5013006;28;20095;-48
2023/08/09 01:40:12;;;;;;;3.53;2.03;;;13.90;99.90;;;;;;5013004;28;20377;-51
2023/08/09 01:42:39;;;;;;;3.25;1.90;;;13.90;99.90;;;;;;5012850;28;20207;-47
2023/08/09 01:45:08;;;;;;;5.05;1.90;;;13.90;99.90;;;;;;5012458;28;20026;-45
2023/08/09 01:47:34;;;;;;;5.97;2.42;;;13.80;99.90;;;;;;5012724;28;20084;-46
2023/08/09 01:50:00;;;;;;;3.90;2.10;;;13.80;99.90;;;;;;5012730;28;20484;-47
2023/08/09 01:52:25;;;;;;;2.72;1.88;;;13.80;99.90;;;;;;5012581;28;20068;-44
2023/08/09 01:54:52;;;;;;;3.35;2.00;;;13.80;99.90;;;;;;5012111;28;20087;-45
2023/08/09 01:57:17;;;;;;;3.92;2.05;;;13.80;99.90;;;;;;4994790;28;20030;-45
2023/08/09 01:59:44;;;;;;;1.92;1.73;;;13.80;99.90;;;;;;5012368;28;20022;-47
2023/08/09 02:02:09;;;;;;;4.35;2.10;;;13.70;99.90;;;;;;5012539;28;20366;-48
2023/08/09 02:04:35;;;;;;;6.28;2.70;;;13.70;99.90;;;;;;5012240;28;20026;-46
2023/08/09 02:07:01;;;;;;;5.28;2.03;;;13.70;99.90;;;;;;4994914;28;20503;-47
2023/08/09 02:09:26;;;;;;;3.92;2.30;;;13.70;99.90;;;;;;5012254;28;20030;-46
2023/08/09 02:11:53;;;;;;;4.00;1.63;;;13.70;99.90;;;;;;5012352;28;20018;-46
2023/08/09 02:14:18;;;;;;;3.38;1.77;;;13.60;99.90;;;;;;5011618;28;20014;-47
2023/08/09 02:16:44;;;;;;;5.25;2.20;;;13.70;99.90;;;;;;4994459;28;20052;-47
2023/08/09 02:19:09;;;;;;;3.35;2.22;;;13.60;99.90;;;;;;5012624;28;20430;-48
2023/08/09 02:21:38;;;;;;;4.00;1.67;;;13.60;99.90;;;;;;5011987;28;20113;-48
2023/08/09 02:24:05;;;;;;;2.83;1.98;;;13.50;99.90;;;;;;5011503;28;20030;-47
2023/08/09 02:26:31;;;;;;;2.38;1.55;;;13.50;99.90;;;;;;5011901;28;20101;-48
2023/08/09 02:28:56;;;;;;;3.63;1.85;;;13.50;99.90;;;;;;4994535;28;20105;-48
2023/08/09 02:31:22;;;;;;;2.15;1.88;;;13.50;99.90;;;;;;5011711;28;20034;-48
2023/08/09 02:33:47;;;;;;;4.85;2.60;;;13.40;99.90;;;;;;5011378;28;20426;-46
2023/08/09 02:36:13;;;;;;;5.70;2.58;;;13.40;99.90;;;;;;5011902;28;20492;-47
2023/08/09 02:38:38;;;;;;;2.63;1.85;;;13.30;99.90;;;;;;5011684;28;20473;-48
2023/08/09 02:41:04;;;;;;;5.43;2.42;;;13.30;99.90;;;;;;5011825;28;20092;-48
2023/08/09 02:43:30;;;;;;;5.35;2.35;;;13.30;99.90;;;;;;5011108;28;20080;-48
2023/08/09 02:45:56;;;;;;;5.13;1.95;;;13.20;99.90;;;;;;5011813;28;20079;-49
2023/08/09 02:48:22;;;;;;;4.03;1.85;;;13.20;99.90;;;;;;5011958;28;20033;-48
2023/08/09 02:50:48;;;;;;;4.25;2.10;;;13.20;99.90;;;;;;5011880;28;20022;-49
2023/08/09 02:53:17;;;;;;;3.92;2.05;;;13.10;99.90;;;;;;5011546;28;20029;-49
2023/08/09 02:55:43;;;;;;;4.95;1.73;;;13.10;99.90;;;;;;4993812;28;20588;-46
2023/08/09 02:58:09;;;;;;;7.82;2.13;;;13.00;99.90;;;;;;5011551;28;20029;-48
2023/08/09 03:00:35;;;;;;;7.85;2.20;;;13.00;99.90;;;;;;5011504;28;20029;-48
2023/08/09 03:03:04;;;;;;;2.85;2.00;;;12.90;99.90;;;;;;5011255;28;20022;-47
2023/08/09 03:05:30;;;;;;;3.83;2.05;;;12.90;99.90;;;;;;5011072;28;20014;-47
2023/08/09 03:07:55;;;;;;;3.05;1.90;;;12.90;99.90;;;;;;4993767;28;20384;-49
2023/08/09 03:10:22;;;;;;;4.70;2.25;;;12.90;99.90;;;;;;4993642;28;20033;-48
2023/08/09 03:12:47;;;;;;;5.28;2.30;;;12.80;99.90;;;;;;5011213;28;20358;-48
2023/08/09 03:15:13;;;;;;;3.72;2.15;;;12.80;99.90;;;;;;5010747;28;20033;-46
2023/08/09 03:17:39;;;;;;;4.07;2.28;;;12.70;99.90;;;;;;5010957;28;20100;-46
2023/08/09 03:20:15;;;;;;;5.22;2.65;;;12.70;99.90;;;;;;5011098;28;20614;-46
2023/08/09 03:22:48;;;;;;;3.92;2.10;;;12.60;99.90;;;;;;5010819;28;20381;-46
2023/08/09 03:25:14;;;;;;;3.63;2.38;;;12.60;99.90;;;;;;5010922;28;20014;-46
2023/08/09 03:27:40;;;;;;;6.00;2.40;;;12.60;99.90;;;;;;5010884;28;20389;-46
2023/08/09 03:30:08;;;;;;;3.60;2.13;;;12.60;99.90;;;;;;5010931;28;20050;-45
2023/08/09 03:32:34;;;;;;;4.55;2.50;;;12.50;99.90;;;;;;5010633;28;20037;-46
2023/08/09 03:35:00;;;;;;;8.27;2.67;;;12.50;99.90;;;;;;4992381;28;20022;-46
2023/08/09 03:37:25;;;;;;;2.65;2.13;;;12.50;99.90;;;;;;5010548;28;20496;-46
2023/08/09 03:39:52;;;;;;;4.45;2.67;;;12.40;99.90;;;;;;5002990;28;20044;-46
2023/08/09 03:42:17;;;;;;;3.08;2.53;;;12.40;99.90;;;;;;5010659;28;20022;-45
2023/08/09 03:44:43;;;;;;;4.00;2.90;;;12.40;99.90;;;;;;4992607;28;20026;-45
2023/08/09 03:47:09;;;;;;;6.32;2.70;;;12.30;99.90;;;;;;5010761;28;20393;-46
2023/08/09 03:49:34;;;;;;;4.45;2.97;;;12.30;99.90;;;;;;5010646;28;20033;-46
2023/08/09 03:52:00;;;;;;;4.72;2.70;;;12.30;99.90;;;;;;5010452;28;20405;-46
2023/08/09 03:54:25;;;;;;;3.78;2.65;;;12.30;99.90;;;;;;5010150;28;20036;-46
2023/08/09 03:56:51;;;;;;;3.10;2.67;;;12.30;99.90;;;;;;5010399;28;20097;-46
2023/08/09 03:59:16;;;;;;;3.25;2.45;;;12.20;99.90;;;;;;5010649;28;20102;-47
2023/08/09 04:01:42;;;;;;;3.55;2.65;;;12.20;99.90;;;;;;5010392;28;20026;-46
2023/08/09 04:04:07;;;;;;;2.50;2.10;;;12.20;99.90;;;;;;5010037;28;20021;-45
2023/08/09 04:06:33;;;;;;;3.97;2.58;;;12.20;99.90;;;;;;5010236;28;20061;-48
2023/08/09 04:08:59;;;;;;;3.47;2.63;;;12.20;99.90;;;;;;4992835;28;20060;-47
2023/08/09 04:11:24;;;;;;;8.40;2.70;;;12.10;99.90;;;;;;5010640;28;20156;-45
2023/08/09 04:13:50;;;;;;;5.93;3.10;;;12.10;99.90;;;;;;5010172;28;20026;-47
2023/08/09 04:16:15;;;;;;;4.70;2.95;;;12.10;99.90;;;;;;5010373;28;20030;-47
2023/08/09 04:18:41;;;;;;;4.43;2.83;;;12.10;99.90;;;;;;4993033;28;20036;-45
2023/08/09 04:21:07;;;;;;;8.13;3.17;;;12.10;99.90;;;;;;5010595;28;20020;-45
2023/08/09 04:23:32;;;;;;;10.68;3.30;;;12.10;99.90;;;;;;5009956;28;20026;-45
2023/08/09 04:25:58;;;;;;;4.50;3.20;;;12.20;99.90;;;;;;5010700;28;20014;-45
2023/08/09 04:28:24;;;;;;;7.68;3.40;;;12.10;99.90;;;;;;5010691;28;20034;-45
2023/08/09 04:30:49;;;;;;;5.07;3.00;;;12.10;99.90;;;;;;5010442;28;20033;-47
2023/08/09 04:33:15;;;;;;;6.35;3.08;;;12.20;99.90;;;;;;5010450;28;20349;-45
2023/08/09 04:35:42;;;;;;;3.60;2.90;;;12.20;99.90;;;;;;5010192;28;20022;-46
2023/08/09 04:38:08;;;;;;;4.88;3.33;;;12.20;99.90;;;;;;5010336;28;20398;-46
2023/08/09 04:40:36;;;;;;;5.88;3.10;;;12.30;99.90;;;;;;4992698;28;20109;-45
2023/08/09 04:43:02;;;;;;;4.30;3.03;;;12.30;99.90;;;;;;5009990;28;20014;-46
2023/08/09 04:45:27;;;;;;;4.55;3.05;;;12.30;99.90;;;;;;5010683;28;20034;-46
2023/08/09 04:47:53;;;;;;;5.70;2.60;;;12.40;99.90;;;;;;4996469;28;20385;-47
2023/08/09 04:50:22;;;;;;;4.63;3.15;;;12.50;99.90;;;;;;5013930;28;20049;-45
2023/08/09 04:52:47;;;;;;;5.22;3.47;;;12.50;99.90;;;;;;5013758;28;20517;-49
2023/08/09 04:55:13;;;;;;;6.78;3.50;;;12.50;99.90;;;;;;5013483;28;20026;-47
2023/08/09 04:57:38;;;;;;;6.97;3.40;;;12.50;99.90;;;;;;5013639;28;20029;-48
2023/08/09 05:00:09;;;;;;;6.13;3.63;;;12.60;99.90;;;;;;5013818;28;20072;-46
2023/08/09 05:02:36;;;;;;;4.55;3.08;;;12.60;99.90;;;;;;4996122;28;20513;-47
2023/08/09 05:05:06;;;;;;;7.82;4.00;;;12.70;99.90;;;;;;4995558;28;20049;-48
2023/08/09 05:07:32;;;;;;;5.57;4.00;;;12.70;99.90;;;;;;5013596;28;20524;-47
2023/08/09 05:10:00;;;;;;;6.70;3.85;;;12.70;99.90;;;;;;5013556;28;20485;-49
2023/08/09 05:12:25;;;;;;;6.45;3.55;;;12.80;99.90;;;;;;5013777;28;20030;-49
2023/08/09 05:14:51;;;;;;;6.53;3.30;;;12.80;99.90;;;;;;5013059;28;20048;-47
2023/08/09 05:17:16;;;;;;;4.53;2.85;;;12.80;99.90;;;;;;4995835;28;20026;-46
2023/08/09 05:19:42;;;;;;;4.38;3.13;;;12.90;99.90;;;;;;5013350;28;20030;-48
2023/08/09 05:22:07;;;;;;;10.18;4.28;;;12.90;99.90;;;;;;5013409;28;20022;-46
2023/08/09 05:24:33;;;;;;;4.47;3.63;;;13.00;99.90;;;;;;4995375;28;20021;-46
2023/08/09 05:26:58;;;;;;;4.82;3.42;;;13.00;99.90;;;;;;4996051;28;20026;-46
2023/08/09 05:29:24;;;;;;;5.90;3.30;;;13.00;99.90;;;;;;4995656;28;20025;-50
2023/08/09 05:31:49;;;;;;;5.50;2.92;;;13.00;99.90;;;;;;5012930;28;20041;-50
2023/08/09 05:34:15;;;;;;;9.00;3.55;;;13.00;99.90;;;;;;5012578;28;20026;-46
2023/08/09 05:36:40;;;;;;;4.93;3.40;;;13.10;99.90;;;;;;5013008;28;20053;-49
2023/08/09 05:39:07;;;;;;;8.80;4.13;;;13.00;99.90;;;;;;4995360;28;20050;-47
2023/08/09 05:41:33;;;;;;;11.70;4.20;;;13.00;99.90;;;;;;4995308;28;20057;-47
2023/08/09 05:43:58;;;;;;;9.40;4.03;;;13.10;99.90;;;;;;4994917;28;20042;-46
2023/08/09 05:46:24;;;;;;;6.75;3.72;;;13.00;99.90;;;;;;5012942;28;20026;-46
2023/08/09 05:48:50;;;;;;;7.63;4.38;;;13.00;99.90;;;;;;5012836;28;20381;-47
2023/08/09 05:51:15;;;;;;;7.70;4.43;;;13.00;99.90;;;;;;5012998;28;20064;-46
2023/08/09 05:53:41;;;;;;;10.68;3.88;;;13.00;99.90;;;;;;5012451;28;20026;-47
2023/08/09 05:56:06;;;;;;;7.63;3.80;;;13.00;99.90;;;;;;4994939;28;20546;-45
2023/08/09 05:58:32;;;;;;;7.43;4.22;;;13.00;99.90;;;;;;5012679;28;20049;-47
2023/08/09 06:00:57;;;;;;;4.25;3.22;;;13.00;99.90;;;;;;5012438;28;20134;-46
2023/08/09 06:03:23;;;;;;;10.38;4.13;;;13.00;99.90;;;;;;5012343;28;20066;-47
2023/08/09 06:05:48;;;;;;;4.95;3.38;;;13.00;99.90;;;;;;5012577;28;20497;-46
2023/08/09 06:08:14;;;;;;;8.45;4.20;;;13.00;99.90;;;;;;5012599;28;20030;-47
2023/08/09 06:10:39;;;;;;;6.20;3.80;;;13.10;99.90;;;;;;5012311;28;20022;-46
2023/08/09 06:13:05;;;;;;;8.50;3.67;;;13.10;99.90;;;;;;5012117;28;20025;-46
2023/08/09 06:15:31;;;;;;;6.82;4.22;;;13.10;99.90;;;;;;5012133;28;20079;-47
2023/08/09 06:17:56;;;;;;;5.65;3.65;;;13.10;99.90;;;;;;5012235;28;20025;-47
2023/08/09 06:20:22;;;;;;;7.40;3.47;;;13.20;99.90;;;;;;5012464;28;20033;-46
2023/08/09 06:22:48;;;;;;;6.68;3.80;;;13.20;99.90;;;;;;5012343;28;20371;-46
2023/08/09 06:25:14;;;;;;;6.80;3.45;;;13.20;99.90;;;;;;4994265;28;20018;-47
2023/08/09 06:27:39;;;;;;;10.55;4.22;;;13.20;99.90;;;;;;5012156;28;20036;-48
2023/08/09 06:30:06;;;;;;;6.90;3.78;;;13.30;99.90;;;;;;5012099;28;20065;-47
2023/08/09 06:32:32;;;;;;;10.90;3.88;;;13.30;99.90;;;;;;5011785;28;20095;-47
2023/08/09 06:34:58;;;;;;;8.05;3.72;;;13.40;99.90;;;;;;5011616;28;20026;-49
2023/08/09 06:37:24;;;;;;;5.63;3.60;;;13.40;99.90;;;;;;5012132;28;20402;-47
2023/08/09 06:39:49;;;;;;;9.63;3.45;;;13.50;99.90;;;;;;5011938;28;20026;-47
2023/08/09 06:42:16;;;;;;;6.72;4.03;;;13.50;99.90;;;;;;5011886;28;20506;-49
2023/08/09 06:44:42;;;;;;;8.15;3.42;;;13.60;99.90;;;;;;5011736;28;20032;-48
2023/08/09 06:47:07;;;;;;;6.47;3.63;;;13.70;99.90;;;;;;5011716;28;20101;-47
2023/08/09 06:49:33;;;;;;;5.25;3.00;;;13.70;99.90;;;;;;5011785;28;20022;-45
2023/08/09 06:52:00;;;;;;;7.35;3.33;;;13.80;99.90;;;;;;5011798;28;20025;-45
2023/08/09 06:54:26;;;;;;;7.05;3.53;;;13.90;99.90;;;;;;5011209;28;20033;-45
2023/08/09 06:56:52;;;;;;;10.60;4.32;;;14.00;99.90;;;;;;5011528;28;20030;-44
2023/08/09 06:59:18;;;;;;;15.60;3.53;;;14.10;99.90;;;;;;5011372;28;20392;-46
2023/08/09 07:01:47;;;;;;;8.55;3.03;;;14.10;99.90;;;;;;5011402;28;20034;-45
2023/08/09 07:04:13;;;;;;;7.40;3.10;;;14.20;99.90;;;;;;5011041;28;20048;-45
2023/08/09 07:06:39;;;;;;;6.22;3.03;;;14.30;99.90;;;;;;5011448;28;20026;-46
2023/08/09 07:09:04;;;;;;;7.72;3.13;;;14.40;99.90;;;;;;5010622;28;20447;-46
2023/08/09 07:11:30;;;;;;;5.68;2.55;;;14.50;99.90;;;;;;5011320;28;20030;-45
2023/08/09 07:13:55;;;;;;;10.55;3.70;;;14.50;99.90;;;;;;4993023;28;20033;-44
2023/08/09 07:16:21;;;;;;;2.95;2.35;;;14.70;99.90;;;;;;5011340;28;20599;-46
2023/08/09 07:18:46;;;;;;;8.32;2.53;;;14.70;99.90;;;;;;5011371;28;20033;-48
2023/08/09 07:21:12;;;;;;;3.78;2.70;;;14.80;99.90;;;;;;5011254;28;20101;-45
2023/08/09 07:23:38;;;;;;;9.27;3.17;;;14.90;99.90;;;;;;5010547;28;20105;-45
2023/08/09 07:26:03;;;;;;;5.15;2.45;;;15.00;99.90;;;;;;5011157;28;20091;-47
2023/08/09 07:28:28;;;;;;;9.25;2.85;;;15.10;99.90;;;;;;4993385;28;20014;-49
2023/08/09 07:30:55;;;;;;;7.75;2.75;;;15.30;99.90;;;;;;4993292;28;20037;-45
2023/08/09 07:33:21;;;;;;;3.88;2.30;;;15.30;99.90;;;;;;5010862;28;20032;-47
2023/08/09 07:35:48;;;;;;;6.22;1.90;;;15.40;99.90;;;;;;5010644;28;20104;-45
2023/08/09 07:38:14;;;;;;;6.70;2.35;;;15.50;99.90;;;;;;5010870;28;20014;-46
2023/08/09 07:40:40;;;;;;;2.58;2.10;;;15.60;99.90;;;;;;5010778;28;20397;-45
2023/08/09 07:43:06;;;;;;;6.75;2.35;;;15.80;99.90;;;;;;4993192;28;20026;-46
2023/08/09 07:45:32;;;;;;;5.32;2.25;;;15.90;99.90;;;;;;5010758;28;20427;-47
2023/08/09 07:47:57;;;;;;;4.65;1.98;;;16.20;99.90;;;;;;4993037;28;20029;-47
2023/08/09 07:50:23;;;;;;;7.80;2.40;;;16.40;99.90;;;;;;5010709;28;20320;-48
2023/08/09 07:52:48;;;;;;;5.47;1.80;;;16.60;99.90;;;;;;5010521;28;20117;-47
2023/08/09 07:55:14;;;;;;;3.20;1.67;;;16.80;99.90;;;;;;5010218;28;20034;-47
2023/08/09 07:57:40;;;;;;;6.60;1.88;;;16.90;99.90;;;;;;5010415;28;20437;-53
2023/08/09 08:00:11;;;;;;;6.68;1.70;;;17.10;99.90;;;;;;4992929;28;20133;-46
2023/08/09 08:02:37;;;;;;;5.80;2.05;;;17.20;99.90;;;;;;5010619;28;20025;-46
2023/08/09 08:05:03;;;;;;;5.70;1.77;;;17.20;99.90;;;;;;5010276;28;20038;-47
2023/08/09 08:07:30;;;;;;;7.05;2.17;;;17.40;99.90;;;;;;5010785;28;20024;-47
2023/08/09 08:09:55;;;;;;;5.50;1.58;;;17.70;99.90;;;;;;5010450;28;20105;-48
2023/08/09 08:12:22;;;;;;;5.32;1.55;;;17.70;99.90;;;;;;5010363;28;20398;-47
2023/08/09 08:14:48;;;;;;;9.77;1.77;;;17.80;99.90;;;;;;5009943;28;20512;-47
2023/08/09 08:17:13;;;;;;;7.03;1.88;;;17.90;99.90;;;;;;5010370;28;20343;-47
2023/08/09 08:19:39;;;;;;;7.00;1.40;;;18.20;99.90;;;;;;5012446;28;20026;-46
2023/08/09 08:22:05;;;;;;;4.07;1.48;;;18.50;99.90;;;;;;5017054;28;20030;-46
2023/08/09 08:24:31;;;;;;;11.18;1.77;;;18.90;99.90;;;;;;5016678;28;20014;-46
2023/08/09 08:26:57;;;;;;;7.05;1.55;;;19.20;99.90;;;;;;4999436;28;20499;-48
2023/08/09 08:29:23;;;;;;;6.53;1.60;;;19.50;99.90;;;;;;5016974;28;20044;-47
2023/08/09 08:31:50;;;;;;;5.13;1.70;;;20.10;99.90;;;;;;5016710;28;20057;-47
2023/08/09 08:34:17;;;;;;;4.50;1.48;;;20.90;99.50;;;;;;5016461;28;20528;-48
2023/08/09 08:36:44;;;;;;;3.17;1.17;;;21.80;97.00;;;;;;5017284;28;20050;-47
2023/08/09 08:39:14;;;;;;;4.32;1.30;;;22.40;95.70;;;;;;5016893;28;20053;-47
2023/08/09 08:41:41;;;;;;;5.18;1.67;;;23.00;93.70;;;;;;5016766;28;20064;-47
2023/08/09 08:44:07;;;;;;;6.00;1.50;;;23.10;92.60;;;;;;5016448;28;20018;-50
2023/08/09 08:46:34;;;;;;;3.38;1.50;;;23.90;91.00;;;;;;5017186;28;20319;-47
2023/08/09 08:49:03;;;;;;;2.78;1.60;;;25.20;89.30;;;;;;5016828;28;20115;-45
2023/08/09 08:51:29;;;;;;;5.70;1.50;;;25.40;84.30;;;;;;5016671;28;20026;-47
2023/08/09 08:53:54;;;;;;;6.40;1.52;;;25.50;83.80;;;;;;5015999;28;20030;-48
2023/08/09 08:56:20;;;;;;;9.13;1.67;;;25.00;82.30;;;;;;5016572;28;20084;-47
2023/08/09 08:58:47;;;;;;;5.53;1.45;;;24.30;84.00;;;;;;5016464;28;20030;-47
2023/08/09 09:01:12;;;;;;;5.43;1.60;;;23.20;85.00;;;;;;5016681;28;20422;-48
2023/08/09 09:03:38;;;;;;;5.75;1.70;;;22.30;88.30;;;;;;5015991;28;20105;-46
2023/08/09 09:06:03;;;;;;;5.30;1.55;;;22.70;88.70;;;;;;5016494;28;20658;-46
2023/08/09 09:08:29;;;;;;;3.50;1.30;;;23.10;88.10;;;;;;5016491;28;20263;-52
2023/08/09 09:10:54;;;;;;;6.80;1.65;;;23.00;88.10;;;;;;5016311;28;20080;-46
2023/08/09 09:13:27;;;;;;;3.42;1.25;;;23.00;87.40;;;;;;5016113;28;20513;-48
2023/08/09 09:15:57;;;;;;;3.22;1.35;;;23.80;88.40;;;;;;5016086;28;20037;-47
2023/08/09 09:18:23;;;;;;;6.05;1.30;;;24.90;84.60;;;;;;5016359;28;20290;-50
2023/08/09 09:20:51;;;;;;;4.35;1.23;;;26.20;80.20;;;;;;5016400;28;20100;-49
2023/08/09 09:23:27;;;;;;;5.63;1.20;;;26.60;78.70;;;;;;5016279;28;20060;-47
2023/08/09 09:26:20;;;;;;;4.18;1.42;;;27.70;76.30;;;;;;5016273;28;20093;-47
2023/08/09 09:28:47;;;;;;;5.88;1.67;;;28.90;74.30;;;;;;5016269;28;20030;-46
2023/08/09 09:31:14;;;;;;;2.35;1.40;;;30.10;70.70;;;;;;5014642;28;20026;-47
2023/08/09 09:33:49;;;;;;;6.57;1.52;;;31.20;70.90;;;;;;5012596;28;20480;-46
2023/08/09 09:36:16;;;;;;;2.75;1.00;;;30.20;66.50;;;;;;5013215;28;20026;-47
2023/08/09 09:38:43;;;;;;;4.93;1.38;;;29.00;68.60;;;;;;5013154;28;20097;-48
2023/08/09 09:41:10;;;;;;;4.68;1.40;;;28.70;67.90;;;;;;5013084;28;20236;-48
2023/08/09 09:43:41;;;;;;;5.65;1.50;;;27.80;67.70;;;;;;5012601;28;20061;-46
2023/08/09 09:46:23;;;;;;;4.35;1.70;;;26.90;69.40;;;;;;5012873;28;20071;-46
2023/08/09 09:48:59;;;;;;;6.70;1.13;;;27.90;69.90;;;;;;5013027;28;20022;-54
2023/08/09 09:51:25;;;;;;;5.35;1.38;;;28.70;67.20;;;;;;4995836;28;20026;-48
2023/08/09 09:53:51;;;;;;;6.20;1.80;;;28.40;67.40;;;;;;5012225;28;20098;-46
2023/08/09 09:56:17;;;;;;;9.80;2.92;;;27.60;69.30;;;;;;5012782;28;20057;-51
2023/08/09 09:58:44;;;;;;;3.50;1.00;;;28.20;70.10;;;;;;5012575;28;20489;-46
2023/08/09 10:01:14;;;;;;;1.67;0.95;;;29.30;67.70;;;;;;5012730;28;20672;-46
2023/08/09 10:03:42;;;;;;;2.78;1.27;;;30.30;63.70;;;;;;5012224;28;20057;-46
2023/08/09 10:06:13;;;;;;;2.47;1.08;;;29.90;63.90;;;;;;5012475;28;20033;-47
2023/08/09 10:08:40;;;;;;;3.72;1.20;;;28.60;65.20;;;;;;5012575;28;20030;-46
2023/08/09 10:11:08;;;;;;;3.33;1.10;;;27.80;66.60;;;;;;4994735;28;20034;-46
2023/08/09 10:13:36;;;;;;;2.85;1.25;;;27.00;66.60;;;;;;5012133;28;20026;-46
2023/08/09 10:16:05;;;;;;;4.45;1.50;;;27.10;68.10;;;;;;5012459;28;20049;-46
2023/08/09 10:18:46;;;;;;;5.30;1.05;;;26.00;70.50;;;;;;5012246;28;20223;-48
2023/08/09 10:21:16;;;;;;;6.28;1.10;;;25.10;70.30;;;;;;5012283;28;20026;-48
2023/08/09 10:24:04;;;;;;;5.40;1.38;;;24.30;71.80;;;;;;4993944;28;20050;-48
2023/08/09 10:26:30;;;;;;;7.15;1.50;;;23.90;74.30;;;;;;5012346;28;20052;-46
2023/08/09 10:29:10;;;;;;;4.53;1.60;;;24.10;74.30;;;;;;5012209;28;20041;-49
2023/08/09 10:31:59;;;;;;;3.13;1.13;;;24.10;75.80;;;;;;4994419;28;20277;-49
2023/08/09 10:34:40;;;;;;;5.13;1.27;;;24.60;71.60;;;;;;5011669;28;20034;-46
2023/08/09 10:37:06;;;;;;;6.25;1.40;;;24.90;69.80;;;;;;5011810;28;20516;-47
2023/08/09 10:39:33;;;;;;;6.30;1.40;;;24.20;73.30;;;;;;5011972;28;20164;-48
2023/08/09 10:42:08;;;;;;;4.75;1.52;;;23.40;73.80;;;;;;5011892;28;20020;-48
2023/08/09 10:44:38;;;;;;;4.28;1.65;;;22.60;75.60;;;;;;5010468;28;20014;-45
2023/08/09 10:47:06;;;;;;;6.65;1.95;;;23.40;76.50;;;;;;5011754;28;20025;-48
2023/08/09 10:50:00;;;;;;;3.22;1.40;;;25.20;73.50;;;;;;5011879;28;20073;-53
2023/08/09 10:52:37;;;;;;;2.92;1.25;;;27.00;71.80;;;;;;5008822;28;20045;-47
2023/08/09 10:55:18;;;;;;;5.60;1.40;;;28.70;65.90;;;;;;5011160;28;20025;-48
2023/08/09 10:57:44;;;;;;;4.38;1.17;;;29.90;65.00;;;;;;5011868;28;20396;-46
2023/08/09 11:00:12;;;;;;;5.25;1.20;;;29.80;62.20;;;;;;5011448;28;20504;-49
2023/08/09 11:02:45;;;;;;;3.28;1.20;;;28.70;61.70;;;;;;5011347;28;20026;-46
2023/08/09 11:05:12;;;;;;;1.95;1.10;;;27.40;65.50;;;;;;5010911;28;20017;-46
2023/08/09 11:07:45;;;;;;;2.88;1.30;;;27.10;65.30;;;;;;5011385;28;20389;-49
2023/08/09 11:10:12;;;;;;;2.03;1.08;;;27.10;68.20;;;;;;5011335;28;20493;-46
2023/08/09 11:12:42;;;;;;;3.33;1.10;;;28.00;66.10;;;;;;5011242;28;20037;-47
2023/08/09 11:15:07;;;;;;;;;;;28.90;62.20;;;;;;5011418;28;20030;-47
2023/08/09 11:17:33;;;;;;;5.63;1.10;;;30.10;62.70;;;;;;5011396;28;19909;-49
2023/08/09 11:19:59;;;;;;;4.18;1.23;;;29.40;60.90;;;;;;5011136;28;20416;-49
2023/08/09 11:22:24;;;;;;;3.30;1.00;;;29.20;62.60;;;;;;5011155;28;20644;-48
2023/08/09 11:24:49;;;;;;;3.55;1.35;;;29.00;63.90;;;;;;4993107;28;20041;-48
2023/08/09 11:27:15;;;;;;;5.72;1.30;;;29.30;62.20;;;;;;5011187;28;20026;-46
2023/08/09 11:29:41;;;;;;;3.20;1.42;;;30.00;65.50;;;;;;5011089;28;20026;-46
2023/08/09 11:32:07;;;;;;;4.13;1.23;;;30.30;59.30;;;;;;5010805;28;20405;-49
2023/08/09 11:34:33;;;;;;;2.33;1.00;;;30.50;59.40;;;;;;5010426;28;20469;-47
2023/08/09 11:36:59;;;;;;;2.28;1.20;;;31.10;61.60;;;;;;5011014;28;20037;-47
2023/08/09 11:39:25;;;;;;;4.10;1.50;;;30.20;60.00;;;;;;5011150;28;20037;-46
2023/08/09 11:41:51;;;;;;;2.92;0.90;;;30.00;62.20;;;;;;5010979;28;20026;-48
2023/08/09 11:44:17;;;;;;;2.65;1.13;;;29.80;61.90;;;;;;5010317;28;20500;-47
2023/08/09 11:46:46;;;;;;;3.95;0.95;;;30.30;60.40;;;;;;5010793;28;20088;-46
2023/08/09 11:49:12;;;;;;;3.45;1.23;;;30.90;61.00;;;;;;5010573;28;20713;-46
2023/08/09 11:51:38;;;;;;;8.43;1.38;;;31.30;58.60;;;;;;5010706;28;20028;-49
2023/08/09 11:54:07;;;;;;;4.45;1.00;;;31.80;58.90;;;;;;5009689;28;20017;-50
2023/08/09 11:56:35;;;;;;;4.40;0.90;;;31.20;57.60;;;;;;4993033;28;20034;-49
2023/08/09 11:59:02;;;;;;;2.25;1.17;;;30.20;58.20;;;;;;5010437;28;20040;-46
2023/08/09 12:01:31;;;;;;;5.15;1.20;;;28.90;61.00;;;;;;5010486;28;20503;-46
2023/08/09 12:03:58;;;;;;;1.02;0.70;;;28.70;59.90;;;;;;5009934;28;20022;-47
2023/08/09 12:06:36;;;;;;;3.58;1.27;;;29.10;60.60;;;;;;5010574;28;20026;-46
2023/08/09 12:09:31;;;;;;;2.22;1.00;;;29.20;60.20;;;;;;5010688;28;20030;-49
2023/08/09 12:12:07;;;;;;;2.15;1.10;;;29.20;62.00;;;;;;5010316;28;20032;-46
2023/08/09 12:14:34;;;;;;;3.47;0.95;;;28.20;59.70;;;;;;5010149;28;20392;-47
2023/08/09 12:17:00;;;;;;;4.05;1.45;;;27.90;61.00;;;;;;5010420;28;20038;-47
2023/08/09 12:19:27;;;;;;;1.65;1.02;;;27.70;62.10;;;;;;5010366;28;20056;-48
2023/08/09 12:21:53;;;;;;;3.58;1.55;;;27.70;61.20;;;;;;5010263;28;20033;-47
2023/08/09 12:24:19;;;;;;;3.08;1.42;;;27.90;61.50;;;;;;4992045;28;20100;-49
2023/08/09 12:26:44;;;;;;;4.72;1.00;;;27.80;63.70;;;;;;5010465;28;20102;-47
2023/08/09 12:29:10;;;;;;;2.08;0.95;;;27.80;65.50;;;;;;5010296;28;20034;-46
2023/08/09 12:31:36;;;;;;;1.98;1.00;;;27.70;63.00;;;;;;5010501;28;20164;-46
2023/08/09 12:34:03;;;;;;;3.05;1.50;;;27.40;62.80;;;;;;5009982;28;20049;-47
2023/08/09 12:36:29;;;;;;;3.40;1.27;;;26.90;64.80;;;;;;4992748;28;20115;-46
2023/08/09 12:38:58;;;;;;;2.08;1.00;;;26.70;63.30;;;;;;4992453;28;20665;-46
2023/08/09 12:41:24;;;;;;;2.67;1.08;;;26.60;63.10;;;;;;5010243;28;20022;-46
2023/08/09 12:43:49;;;;;;;3.45;1.60;;;26.70;62.30;;;;;;5009675;28;20037;-47
2023/08/09 12:46:15;;;;;;;3.78;1.38;;;26.60;63.70;;;;;;5010045;28;20056;-46